Time;durP1;ratioP1;P1;durP2;ratioP2;P2;SDS_P1;SDS_P2;PMS_P1;PMS_P2;Temp;Humidity;BMP_temperature;BMP_pressure;BME280_temperature;BME280_humidity;BME280_pressure;Samples;Min_cycle;Max_cycle;Signal;HPM_P1;HPM_P2
2023/07/28 00:00:43;;;;;;;4.72;2.90;;;16.30;99.90;;;;;;4963763;28;20034;-69
2023/07/28 00:03:09;;;;;;;5.47;2.53;;;16.40;99.90;;;;;;4968842;28;20031;-69
2023/07/28 00:05:36;;;;;;;8.07;3.28;;;16.40;99.90;;;;;;4975676;28;20045;-70
2023/07/28 00:08:02;;;;;;;6.43;2.97;;;16.40;99.90;;;;;;4964468;28;20135;-69
2023/07/28 00:10:27;;;;;;;7.35;3.50;;;16.40;99.90;;;;;;4954613;28;20143;-71
2023/07/28 00:12:53;;;;;;;7.00;3.40;;;16.50;99.90;;;;;;4967411;28;20031;-69
2023/07/28 00:15:18;;;;;;;8.27;3.13;;;16.40;99.90;;;;;;4970907;28;20039;-70
2023/07/28 00:17:44;;;;;;;6.35;3.17;;;16.50;99.90;;;;;;4968199;28;20462;-70
2023/07/28 00:20:10;;;;;;;8.13;3.35;;;16.50;99.90;;;;;;4968577;28;20054;-70
2023/07/28 00:22:36;;;;;;;10.15;3.70;;;16.50;99.90;;;;;;4962663;28;20069;-69
2023/07/28 00:25:01;;;;;;;7.50;3.55;;;16.40;99.90;;;;;;4966589;28;20473;-69
2023/07/28 00:27:27;;;;;;;9.00;4.13;;;16.50;99.90;;;;;;4968904;28;20062;-69
2023/07/28 00:29:52;;;;;;;10.70;3.50;;;16.50;99.90;;;;;;4971743;28;20031;-72
2023/07/28 00:32:17;;;;;;;8.63;3.95;;;16.50;99.90;;;;;;4968009;28;20046;-70
2023/07/28 00:34:43;;;;;;;10.95;4.93;;;16.50;99.90;;;;;;4969357;28;20070;-69
2023/07/28 00:37:08;;;;;;;12.10;5.75;;;16.50;99.90;;;;;;4967667;28;20424;-73
2023/07/28 00:39:34;;;;;;;10.65;5.72;;;16.50;99.90;;;;;;4977132;28;20106;-69
2023/07/28 00:41:59;;;;;;;11.10;5.47;;;16.60;99.90;;;;;;4968766;28;20039;-69
2023/07/28 00:44:25;;;;;;;13.50;4.95;;;16.60;99.90;;;;;;4977852;28;20111;-70
2023/07/28 00:46:50;;;;;;;9.98;5.13;;;16.60;99.90;;;;;;4961867;28;20043;-72
2023/07/28 00:49:16;;;;;;;10.10;4.43;;;16.60;99.90;;;;;;4969174;28;20125;-72
2023/07/28 00:51:42;;;;;;;11.02;4.65;;;16.60;99.90;;;;;;4967419;28;20039;-70
2023/07/28 00:54:08;;;;;;;8.30;4.30;;;16.60;99.90;;;;;;4966826;28;20466;-70
2023/07/28 00:56:33;;;;;;;8.20;4.18;;;16.60;99.90;;;;;;4961748;28;20045;-70
2023/07/28 00:58:59;;;;;;;8.57;4.05;;;16.60;99.90;;;;;;4973719;28;20153;-71
2023/07/28 01:01:24;;;;;;;8.98;3.90;;;16.60;99.90;;;;;;4966775;28;20608;-70
2023/07/28 01:03:50;;;;;;;7.10;3.63;;;16.60;99.90;;;;;;4969325;28;20109;-70
2023/07/28 01:06:40;;;;;;;11.43;3.97;;;16.60;99.90;;;;;;4967396;28;20435;-70
2023/07/28 01:09:18;;;;;;;11.88;3.90;;;16.70;99.90;;;;;;4963024;28;20082;-70
2023/07/28 01:11:53;;;;;;;7.57;3.53;;;16.70;99.90;;;;;;4973150;28;20104;-70
2023/07/28 01:14:19;;;;;;;8.77;3.38;;;16.70;99.90;;;;;;4970041;28;20113;-70
2023/07/28 01:16:44;;;;;;;9.75;3.50;;;16.70;99.90;;;;;;4969356;28;20137;-71
2023/07/28 01:19:12;;;;;;;8.27;3.63;;;16.70;99.90;;;;;;4968195;28;20134;-70
2023/07/28 01:21:39;;;;;;;6.65;3.33;;;16.70;99.90;;;;;;4967764;28;20043;-70
2023/07/28 01:24:33;;;;;;;7.93;3.55;;;16.70;99.90;;;;;;4961150;28;20435;-73
2023/07/28 01:26:59;;;;;;;9.35;3.47;;;16.70;99.90;;;;;;4962304;28;20090;-70
2023/07/28 01:29:25;;;;;;;9.82;3.45;;;16.70;99.90;;;;;;4965578;28;20046;-69
2023/07/28 01:31:51;;;;;;;8.30;3.53;;;16.70;99.90;;;;;;4966849;28;20057;-72
2023/07/28 01:34:16;;;;;;;10.85;4.43;;;16.70;99.90;;;;;;4970083;28;22170;-71
2023/07/28 01:36:42;;;;;;;12.15;4.53;;;16.70;99.90;;;;;;4965131;28;20039;-70
2023/07/28 01:39:07;;;;;;;14.15;4.82;;;16.70;99.90;;;;;;4962837;28;20423;-71
2023/07/28 01:41:33;;;;;;;7.97;4.55;;;16.80;99.90;;;;;;4961880;28;20027;-70
2023/07/28 01:43:58;;;;;;;9.65;5.30;;;16.80;99.90;;;;;;4970216;28;20427;-73
2023/07/28 01:46:24;;;;;;;8.00;4.45;;;16.80;99.90;;;;;;4961600;28;20042;-74
2023/07/28 01:48:49;;;;;;;8.80;4.50;;;16.80;99.90;;;;;;4965518;28;20061;-70
2023/07/28 01:51:15;;;;;;;10.55;3.92;;;16.80;99.90;;;;;;4966585;28;20043;-70
2023/07/28 01:53:40;;;;;;;11.77;4.00;;;16.80;99.90;;;;;;4964601;28;20462;-70
2023/07/28 01:56:05;;;;;;;8.43;3.80;;;16.80;99.90;;;;;;4962284;28;20059;-71
2023/07/28 01:58:31;;;;;;;9.13;4.13;;;16.80;99.90;;;;;;4967994;28;20050;-71
2023/07/28 02:00:56;;;;;;;11.18;4.18;;;16.80;99.90;;;;;;4964175;28;20035;-71
2023/07/28 02:03:22;;;;;;;9.10;4.60;;;16.80;99.90;;;;;;4966350;28;20129;-70
2023/07/28 02:05:48;;;;;;;11.77;4.72;;;16.80;99.90;;;;;;4962465;28;20034;-71
2023/07/28 02:08:14;;;;;;;8.85;4.00;;;16.80;99.90;;;;;;4964710;28;20194;-70
2023/07/28 02:10:39;;;;;;;7.60;3.45;;;16.80;99.90;;;;;;4961806;28;20145;-70
2023/07/28 02:13:05;;;;;;;8.02;4.40;;;16.80;99.90;;;;;;4969914;28;20050;-71
2023/07/28 02:15:30;;;;;;;14.25;4.60;;;16.80;99.90;;;;;;4968983;28;20141;-72
2023/07/28 02:17:56;;;;;;;7.70;3.83;;;16.80;99.90;;;;;;4968572;28;20023;-70
2023/07/28 02:20:21;;;;;;;8.00;4.10;;;16.80;99.90;;;;;;4963200;28;20081;-71
2023/07/28 02:22:47;;;;;;;13.13;3.97;;;16.80;99.90;;;;;;4965890;28;20046;-71
2023/07/28 02:25:12;;;;;;;11.23;4.38;;;16.80;99.90;;;;;;4968937;28;20654;-71
2023/07/28 02:27:38;;;;;;;8.35;4.28;;;16.80;99.90;;;;;;4968394;28;20054;-71
2023/07/28 02:30:05;;;;;;;10.20;4.88;;;16.80;99.90;;;;;;4969905;28;20054;-70
2023/07/28 02:32:31;;;;;;;15.32;4.38;;;16.80;99.90;;;;;;4969659;28;20427;-72
2023/07/28 02:34:57;;;;;;;8.45;4.60;;;16.80;99.90;;;;;;4967933;28;20442;-71
2023/07/28 02:37:22;;;;;;;12.90;4.80;;;16.70;99.90;;;;;;4965799;28;20118;-72
2023/07/28 02:39:47;;;;;;;11.45;4.75;;;16.80;99.90;;;;;;4960231;28;20419;-71
2023/07/28 02:42:13;;;;;;;13.18;5.32;;;16.80;99.90;;;;;;4963828;28;20046;-73
2023/07/28 02:44:39;;;;;;;12.68;6.03;;;16.80;99.90;;;;;;4964038;28;20400;-70
2023/07/28 02:47:05;;;;;;;12.23;5.68;;;16.80;99.90;;;;;;4969286;28;20097;-71
2023/07/28 02:49:30;;;;;;;17.00;6.88;;;16.80;99.90;;;;;;4968000;28;20488;-72
2023/07/28 02:51:56;;;;;;;20.75;7.65;;;16.80;99.90;;;;;;4974242;28;20215;-72
2023/07/28 02:54:23;;;;;;;15.18;7.80;;;16.80;99.90;;;;;;4964266;28;20423;-70
2023/07/28 02:56:49;;;;;;;20.13;8.32;;;16.80;99.90;;;;;;4968376;28;20462;-71
2023/07/28 02:59:15;;;;;;;23.58;8.68;;;16.80;99.90;;;;;;4972136;28;20136;-71
2023/07/28 03:01:40;;;;;;;24.08;8.88;;;16.80;99.90;;;;;;4965527;28;20470;-72
2023/07/28 03:04:06;;;;;;;22.45;8.50;;;16.80;99.90;;;;;;4967929;28;20113;-70
2023/07/28 03:06:31;;;;;;;23.73;8.32;;;16.80;99.90;;;;;;4985392;28;20050;-70
2023/07/28 03:08:59;;;;;;;24.27;8.98;;;16.80;99.90;;;;;;4961533;28;20062;-71
2023/07/28 03:11:24;;;;;;;26.75;9.82;;;16.80;99.90;;;;;;4970531;28;20073;-71
2023/07/28 03:13:50;;;;;;;25.67;9.68;;;16.80;99.90;;;;;;4978339;28;20414;-73
2023/07/28 03:16:15;;;;;;;28.98;10.18;;;16.80;99.90;;;;;;4969009;28;20026;-71
2023/07/28 03:18:41;;;;;;;31.75;10.55;;;16.80;99.90;;;;;;4963579;28;20126;-71
2023/07/28 03:21:08;;;;;;;33.92;11.90;;;16.80;99.90;;;;;;4965632;28;20470;-72
2023/07/28 03:23:33;;;;;;;29.17;10.85;;;16.80;99.90;;;;;;4959918;28;20031;-71
2023/07/28 03:25:59;;;;;;;28.15;10.77;;;16.80;99.90;;;;;;4960608;28;20602;-71
2023/07/28 03:28:24;;;;;;;28.92;10.85;;;16.80;99.90;;;;;;4971013;28;20076;-71
2023/07/28 03:30:50;;;;;;;26.70;10.13;;;16.80;99.90;;;;;;4969982;28;20026;-71
2023/07/28 03:33:15;;;;;;;29.70;10.63;;;16.80;99.90;;;;;;4971940;28;20114;-71
2023/07/28 03:35:40;;;;;;;27.88;10.60;;;16.70;99.90;;;;;;4968021;28;20027;-72
2023/07/28 03:38:06;;;;;;;30.92;11.05;;;16.80;99.90;;;;;;4965231;28;20078;-72
2023/07/28 03:40:31;;;;;;;30.67;11.35;;;16.70;99.90;;;;;;4960135;28;20054;-71
2023/07/28 03:42:57;;;;;;;32.70;11.52;;;16.80;99.90;;;;;;4967581;28;20092;-71
2023/07/28 03:45:22;;;;;;;30.08;11.25;;;16.80;99.90;;;;;;4962795;28;20050;-70
2023/07/28 03:47:48;;;;;;;29.58;10.20;;;16.70;99.90;;;;;;4966037;28;20034;-71
2023/07/28 03:50:13;;;;;;;32.38;11.25;;;16.70;99.90;;;;;;4969136;28;20386;-71
2023/07/28 03:52:39;;;;;;;30.67;10.50;;;16.70;99.90;;;;;;4970064;28;20054;-70
2023/07/28 03:55:05;;;;;;;25.75;10.27;;;16.70;99.90;;;;;;4968586;28;20109;-71
2023/07/28 03:57:30;;;;;;;28.65;11.27;;;16.70;99.90;;;;;;4968499;28;20031;-70
2023/07/28 03:59:55;;;;;;;29.73;11.10;;;16.70;99.90;;;;;;4968845;28;20079;-70
2023/07/28 04:02:21;;;;;;;32.45;11.07;;;16.80;99.90;;;;;;4966609;28;20085;-71
2023/07/28 04:04:46;;;;;;;32.22;11.50;;;16.70;99.90;;;;;;4964559;28;20440;-71
2023/07/28 04:07:12;;;;;;;30.27;10.85;;;16.70;99.90;;;;;;4969003;28;20054;-71
2023/07/28 04:09:37;;;;;;;31.70;11.70;;;16.70;99.90;;;;;;4967014;28;20124;-70
2023/07/28 04:12:03;;;;;;;30.13;11.35;;;16.80;99.90;;;;;;4976054;28;20035;-71
2023/07/28 04:14:29;;;;;;;27.35;11.25;;;16.80;99.90;;;;;;4969328;28;20383;-70
2023/07/28 04:16:54;;;;;;;30.80;10.63;;;16.70;99.90;;;;;;4979579;28;20034;-70
2023/07/28 04:19:20;;;;;;;31.17;11.48;;;16.70;99.90;;;;;;4968778;28;20043;-70
2023/07/28 04:21:45;;;;;;;27.15;10.27;;;16.70;99.90;;;;;;4975311;28;20178;-70
2023/07/28 04:24:11;;;;;;;35.88;11.57;;;16.80;99.90;;;;;;4968560;28;20459;-71
2023/07/28 04:26:37;;;;;;;30.73;11.98;;;16.80;99.90;;;;;;4969215;28;20038;-71
2023/07/28 04:29:03;;;;;;;31.45;11.27;;;16.80;99.90;;;;;;4980026;28;20355;-68
2023/07/28 04:31:28;;;;;;;31.45;11.80;;;16.80;99.90;;;;;;4974084;28;20524;-68
2023/07/28 04:33:54;;;;;;;32.42;11.70;;;16.80;99.90;;;;;;4974547;28;20031;-67
2023/07/28 04:36:19;;;;;;;33.00;11.70;;;16.80;99.90;;;;;;4971387;28;20058;-67
2023/07/28 04:38:45;;;;;;;27.50;11.43;;;16.80;99.90;;;;;;4966311;28;20130;-70
2023/07/28 04:41:10;;;;;;;32.97;11.80;;;16.80;99.90;;;;;;4964545;28;20034;-71
2023/07/28 04:43:36;;;;;;;31.33;12.25;;;16.80;99.90;;;;;;4969486;28;20035;-68
2023/07/28 04:46:01;;;;;;;31.95;12.43;;;16.90;99.90;;;;;;4963548;28;20086;-68
2023/07/28 04:48:27;;;;;;;32.90;12.63;;;16.80;99.90;;;;;;4973935;28;20047;-68
2023/07/28 04:50:53;;;;;;;34.60;12.00;;;16.80;99.90;;;;;;4969521;28;20050;-69
2023/07/28 04:53:18;;;;;;;30.33;11.90;;;16.90;99.90;;;;;;4973290;28;20035;-68
2023/07/28 04:55:44;;;;;;;27.38;11.73;;;16.90;99.90;;;;;;4963445;28;20027;-70
2023/07/28 04:58:09;;;;;;;30.17;12.07;;;16.90;99.90;;;;;;4966342;28;20330;-69
2023/07/28 05:00:34;;;;;;;32.25;11.35;;;16.90;99.90;;;;;;4967399;28;20050;-70
2023/07/28 05:03:00;;;;;;;23.83;8.15;;;16.90;99.90;;;;;;4968404;28;20105;-69
2023/07/28 05:05:25;;;;;;;13.40;5.78;;;16.80;99.90;;;;;;4968281;28;20038;-69
2023/07/28 05:07:51;;;;;;;12.00;4.63;;;16.80;99.90;;;;;;4963715;28;20081;-69
2023/07/28 05:10:16;;;;;;;9.60;4.03;;;16.80;99.90;;;;;;4965125;28;20090;-70
2023/07/28 05:12:42;;;;;;;7.60;3.38;;;16.80;99.90;;;;;;4969559;28;20355;-68
2023/07/28 05:15:10;;;;;;;8.35;3.15;;;16.70;99.90;;;;;;4966533;28;20030;-68
2023/07/28 05:17:36;;;;;;;5.90;2.92;;;16.70;99.90;;;;;;4965281;28;20031;-69
2023/07/28 05:20:02;;;;;;;7.35;3.13;;;16.80;99.90;;;;;;4963572;28;20031;-68
2023/07/28 05:22:27;;;;;;;9.80;2.90;;;16.80;99.90;;;;;;4968291;28;20130;-72
2023/07/28 05:24:53;;;;;;;5.65;2.15;;;16.80;99.90;;;;;;4962082;28;20114;-73
2023/07/28 05:27:19;;;;;;;5.65;2.28;;;16.80;99.90;;;;;;4983866;28;20174;-68
2023/07/28 05:29:44;;;;;;;3.97;2.20;;;16.80;99.90;;;;;;4967960;28;20023;-68
2023/07/28 05:32:10;;;;;;;4.43;2.20;;;16.80;99.90;;;;;;4966071;28;20030;-68
2023/07/28 05:34:35;;;;;;;6.13;2.47;;;16.90;99.90;;;;;;4965862;28;20579;-69
2023/07/28 05:37:01;;;;;;;4.72;2.38;;;17.00;99.90;;;;;;4969607;28;20046;-69
2023/07/28 05:39:26;;;;;;;5.30;2.20;;;16.90;99.90;;;;;;4965116;28;20090;-68
2023/07/28 05:41:51;;;;;;;3.50;2.20;;;16.90;99.90;;;;;;4966370;28;20031;-69
2023/07/28 05:44:17;;;;;;;5.15;2.05;;;16.90;99.90;;;;;;4979603;28;20107;-68
2023/07/28 05:46:42;;;;;;;3.28;1.75;;;16.90;99.90;;;;;;4966689;28;20027;-69
2023/07/28 05:49:08;;;;;;;4.03;1.55;;;16.90;99.90;;;;;;4967501;28;20027;-69
2023/07/28 05:51:33;;;;;;;3.85;1.27;;;16.90;99.90;;;;;;4965995;28;20049;-68
2023/07/28 05:54:00;;;;;;;2.28;0.90;;;17.00;99.90;;;;;;4956919;28;20435;-68
2023/07/28 05:56:25;;;;;;;2.17;0.80;;;16.90;99.90;;;;;;4967303;28;20436;-73
2023/07/28 05:58:51;;;;;;;2.67;0.95;;;16.90;99.90;;;;;;4965155;28;20146;-69
2023/07/28 06:01:17;;;;;;;3.70;0.90;;;16.90;99.90;;;;;;4963741;28;20034;-68
2023/07/28 06:03:43;;;;;;;1.70;0.90;;;17.00;99.90;;;;;;4963302;28;20581;-69
2023/07/28 06:06:08;;;;;;;3.00;0.98;;;17.00;99.90;;;;;;4958460;28;20035;-71
2023/07/28 06:08:35;;;;;;;3.50;1.13;;;17.00;99.90;;;;;;4965718;28;20136;-70
2023/07/28 06:11:04;;;;;;;2.92;1.08;;;17.20;99.90;;;;;;4974651;28;20027;-71
2023/07/28 06:13:29;;;;;;;2.03;1.10;;;17.30;99.90;;;;;;4968874;28;20402;-69
2023/07/28 06:15:56;;;;;;;5.38;1.30;;;17.20;99.90;;;;;;4966385;28;20054;-73
2023/07/28 06:18:22;;;;;;;2.88;1.33;;;17.30;99.90;;;;;;4968309;28;20027;-68
2023/07/28 06:20:47;;;;;;;4.13;1.20;;;17.40;99.90;;;;;;4968779;28;20126;-69
2023/07/28 06:23:13;;;;;;;2.88;1.52;;;17.50;99.90;;;;;;4979022;28;20379;-70
2023/07/28 06:25:43;;;;;;;3.03;1.70;;;17.40;99.90;;;;;;4965988;28;20549;-68
2023/07/28 06:28:10;;;;;;;3.28;1.95;;;17.40;99.90;;;;;;4971458;28;20033;-72
2023/07/28 06:30:37;;;;;;;2.90;1.70;;;17.40;99.90;;;;;;4966918;28;20069;-68
2023/07/28 06:33:03;;;;;;;3.13;2.08;;;17.40;99.90;;;;;;4970641;28;20045;-69
2023/07/28 06:35:28;;;;;;;2.80;2.00;;;17.40;99.90;;;;;;4968173;28;20319;-68
2023/07/28 06:37:54;;;;;;;3.70;2.42;;;17.50;99.90;;;;;;4965211;28;20039;-68
2023/07/28 06:40:20;;;;;;;3.78;2.15;;;17.30;99.90;;;;;;4963634;28;20162;-68
2023/07/28 06:42:46;;;;;;;4.57;2.67;;;17.30;99.90;;;;;;4965054;28;20066;-69
2023/07/28 06:45:11;;;;;;;3.67;2.47;;;17.50;99.90;;;;;;4963275;28;20023;-67
2023/07/28 06:47:37;;;;;;;5.75;2.60;;;17.60;99.90;;;;;;4962191;28;20034;-68
2023/07/28 06:50:03;;;;;;;6.03;3.00;;;17.60;99.90;;;;;;4965060;28;20394;-68
2023/07/28 06:52:28;;;;;;;6.03;2.72;;;17.50;99.90;;;;;;4966059;28;20133;-72
2023/07/28 06:54:54;;;;;;;4.22;2.95;;;17.80;99.90;;;;;;4958350;28;20511;-72
2023/07/28 06:57:20;;;;;;;5.28;3.20;;;17.80;99.90;;;;;;4959385;28;20057;-67
2023/07/28 06:59:45;;;;;;;5.40;2.70;;;17.70;99.50;;;;;;4966090;28;20458;-67
2023/07/28 07:02:11;;;;;;;5.30;2.80;;;17.70;99.50;;;;;;4963072;28;20099;-68
2023/07/28 07:04:37;;;;;;;5.63;2.40;;;17.70;99.50;;;;;;4973601;28;20034;-67
2023/07/28 07:07:03;;;;;;;6.18;3.13;;;17.80;99.50;;;;;;4954595;28;20435;-67
2023/07/28 07:09:29;;;;;;;6.45;3.40;;;17.80;99.40;;;;;;4956632;28;20220;-67
2023/07/28 07:11:54;;;;;;;6.28;3.13;;;18.00;99.60;;;;;;4964988;28;20053;-68
2023/07/28 07:14:20;;;;;;;4.30;3.20;;;18.00;99.40;;;;;;4964442;28;20111;-67
2023/07/28 07:16:46;;;;;;;4.95;3.17;;;18.00;99.30;;;;;;4960536;28;20039;-67
2023/07/28 07:19:13;;;;;;;6.18;3.25;;;18.00;99.40;;;;;;4962219;28;20109;-68
2023/07/28 07:21:38;;;;;;;7.18;3.50;;;18.00;99.20;;;;;;4961563;28;20026;-70
2023/07/28 07:24:04;;;;;;;5.40;3.50;;;18.00;99.20;;;;;;4959634;28;20403;-72
2023/07/28 07:26:31;;;;;;;4.57;3.13;;;17.90;99.00;;;;;;4977393;28;20125;-68
2023/07/28 07:28:57;;;;;;;4.22;3.10;;;18.00;99.20;;;;;;4970054;28;20043;-68
2023/07/28 07:31:23;;;;;;;5.60;3.15;;;18.10;98.90;;;;;;4964111;28;20037;-68
2023/07/28 07:33:48;;;;;;;3.63;2.88;;;18.10;98.80;;;;;;4961544;28;20039;-67
2023/07/28 07:36:15;;;;;;;5.03;2.80;;;18.30;98.80;;;;;;4958500;28;20035;-68
2023/07/28 07:38:41;;;;;;;5.15;2.72;;;18.20;98.10;;;;;;4959082;28;20039;-69
2023/07/28 07:41:08;;;;;;;3.08;2.50;;;18.30;98.30;;;;;;4963018;28;20042;-67
2023/07/28 07:43:34;;;;;;;3.45;2.47;;;18.40;98.40;;;;;;4968301;28;20038;-68
2023/07/28 07:45:59;;;;;;;3.78;2.70;;;18.30;98.20;;;;;;4967086;28;20097;-68
2023/07/28 07:48:25;;;;;;;3.65;2.47;;;18.10;98.30;;;;;;4958652;28;20043;-69
2023/07/28 07:50:51;;;;;;;5.97;3.15;;;18.00;98.50;;;;;;4965839;28;20066;-67
2023/07/28 07:53:17;;;;;;;4.88;2.38;;;18.00;98.90;;;;;;4963118;28;20083;-67
2023/07/28 07:55:42;;;;;;;4.00;2.92;;;18.00;99.10;;;;;;4961158;28;20031;-70
2023/07/28 07:58:08;;;;;;;4.70;2.70;;;17.80;99.20;;;;;;4967598;28;20824;-67
2023/07/28 08:00:34;;;;;;;5.78;3.13;;;17.80;99.40;;;;;;4966056;28;20102;-67
2023/07/28 08:02:59;;;;;;;4.32;3.08;;;17.80;99.40;;;;;;4968564;28;20419;-67
2023/07/28 08:05:25;;;;;;;5.97;3.20;;;17.80;99.50;;;;;;4967415;28;20462;-66
2023/07/28 08:07:50;;;;;;;4.38;2.92;;;17.80;99.60;;;;;;4965281;28;20043;-70
2023/07/28 08:10:16;;;;;;;4.80;3.10;;;17.70;99.80;;;;;;4962290;28;20059;-68
2023/07/28 08:12:44;;;;;;;6.05;2.88;;;17.70;99.80;;;;;;4963684;28;20031;-67
2023/07/28 08:15:10;;;;;;;6.75;3.30;;;17.70;99.90;;;;;;4967184;28;20093;-68
2023/07/28 08:17:35;;;;;;;5.47;3.65;;;17.70;99.90;;;;;;4967003;28;20042;-66
2023/07/28 08:20:01;;;;;;;5.40;3.65;;;17.80;99.90;;;;;;4964271;28;20462;-69
2023/07/28 08:22:26;;;;;;;5.88;3.75;;;17.80;99.90;;;;;;4963872;28;20054;-66
2023/07/28 08:24:52;;;;;;;9.82;4.70;;;17.80;99.90;;;;;;4963706;28;20110;-73
2023/07/28 08:27:18;;;;;;;8.82;4.05;;;17.90;99.90;;;;;;4966657;28;20035;-67
2023/07/28 08:29:43;;;;;;;7.90;4.53;;;17.80;99.90;;;;;;4967234;28;20035;-66
2023/07/28 08:32:09;;;;;;;6.35;4.25;;;17.90;99.90;;;;;;4961933;28;20129;-66
2023/07/28 08:34:34;;;;;;;6.50;4.32;;;18.10;99.90;;;;;;4966383;28;20443;-67
2023/07/28 08:37:00;;;;;;;7.03;4.43;;;18.10;99.90;;;;;;4968868;28;20422;-68
2023/07/28 08:39:25;;;;;;;7.47;4.68;;;18.30;99.90;;;;;;4983049;28;20455;-68
2023/07/28 08:41:59;;;;;;;5.43;3.25;;;18.40;99.90;;;;;;4967056;28;20114;-67
2023/07/28 08:44:25;;;;;;;4.35;3.40;;;18.50;99.90;;;;;;4969422;28;20489;-68
2023/07/28 08:46:50;;;;;;;4.15;3.08;;;18.40;99.90;;;;;;4968531;28;20030;-68
2023/07/28 08:49:16;;;;;;;4.05;3.00;;;18.50;99.90;;;;;;4971318;28;20041;-66
2023/07/28 08:51:42;;;;;;;4.40;2.30;;;18.60;99.80;;;;;;4970207;28;20504;-73
2023/07/28 08:54:07;;;;;;;2.75;1.80;;;18.60;99.50;;;;;;4968995;28;20041;-67
2023/07/28 08:56:33;;;;;;;4.82;2.35;;;18.50;99.10;;;;;;4966738;28;20082;-67
2023/07/28 08:58:59;;;;;;;2.47;1.90;;;18.50;99.20;;;;;;4986859;28;20027;-67
2023/07/28 09:01:25;;;;;;;2.80;1.90;;;18.50;99.20;;;;;;4978068;28;20031;-68
2023/07/28 09:03:50;;;;;;;2.20;1.40;;;18.50;99.20;;;;;;4978903;28;20118;-70
2023/07/28 09:06:16;;;;;;;1.75;1.50;;;18.50;99.30;;;;;;4971288;28;20046;-67
2023/07/28 09:08:43;;;;;;;2.20;1.50;;;18.50;99.30;;;;;;4976083;28;20157;-67
2023/07/28 09:11:08;;;;;;;2.20;1.70;;;18.70;99.40;;;;;;4965994;28;20133;-67
2023/07/28 09:13:41;;;;;;;2.75;1.70;;;18.80;99.50;;;;;;4976526;28;20443;-67
2023/07/28 09:16:17;;;;;;;3.03;1.50;;;18.80;99.20;;;;;;4970296;28;20103;-67
2023/07/28 09:18:43;;;;;;;1.65;1.35;;;18.80;98.80;;;;;;4975491;28;20141;-68
2023/07/28 09:21:23;;;;;;;2.42;1.65;;;18.90;98.80;;;;;;4967246;28;20538;-67
2023/07/28 09:23:49;;;;;;;3.00;1.88;;;19.10;98.50;;;;;;4968897;28;20027;-70
2023/07/28 09:26:16;;;;;;;2.35;1.50;;;19.30;98.10;;;;;;4959534;28;20104;-71
2023/07/28 09:28:42;;;;;;;2.60;1.75;;;19.50;98.20;;;;;;4970557;28;20046;-68
2023/07/28 09:31:09;;;;;;;1.80;1.40;;;19.80;97.10;;;;;;4968249;28;20118;-68
2023/07/28 09:33:36;;;;;;;3.85;1.33;;;19.90;97.00;;;;;;4971833;28;20030;-67
2023/07/28 09:36:10;;;;;;;3.15;1.52;;;19.70;96.70;;;;;;4977580;28;20331;-68
2023/07/28 09:38:37;;;;;;;1.83;1.30;;;19.60;96.90;;;;;;4969319;28;20415;-68
2023/07/28 09:41:09;;;;;;;2.33;1.30;;;19.50;96.40;;;;;;4968614;28;20050;-67
2023/07/28 09:43:35;;;;;;;1.75;1.20;;;19.50;96.70;;;;;;4973693;28;20308;-67
2023/07/28 09:46:07;;;;;;;2.28;1.30;;;19.50;96.90;;;;;;4966215;28;20046;-67
2023/07/28 09:48:34;;;;;;;2.08;1.30;;;19.40;97.20;;;;;;4968393;28;20221;-67
2023/07/28 09:51:06;;;;;;;2.42;1.48;;;19.20;97.20;;;;;;4968145;28;20057;-67
2023/07/28 09:53:39;;;;;;;3.45;1.52;;;19.30;97.50;;;;;;4973513;28;20060;-68
2023/07/28 09:56:04;;;;;;;1.90;1.40;;;19.30;97.80;;;;;;4971832;28;20145;-67
2023/07/28 09:58:35;;;;;;;6.45;1.80;;;19.10;97.70;;;;;;4966006;28;20514;-67
2023/07/28 10:01:02;;;;;;;3.47;2.20;;;19.10;98.00;;;;;;4965628;28;20311;-67
2023/07/28 10:03:28;;;;;;;3.30;1.90;;;19.10;98.00;;;;;;4965930;28;20041;-68
2023/07/28 10:05:54;;;;;;;2.97;2.10;;;19.10;98.20;;;;;;4968189;28;20048;-67
2023/07/28 10:08:19;;;;;;;3.25;1.98;;;19.20;98.10;;;;;;4964893;28;20115;-67
2023/07/28 10:10:46;;;;;;;3.65;2.42;;;19.20;98.00;;;;;;4963611;28;20426;-68
2023/07/28 10:13:21;;;;;;;5.05;2.00;;;19.10;98.10;;;;;;4970553;28;20027;-67
2023/07/28 10:15:47;;;;;;;3.03;2.15;;;19.00;98.20;;;;;;4980031;28;20114;-67
2023/07/28 10:18:13;;;;;;;6.22;2.53;;;19.00;98.50;;;;;;4964305;28;20054;-67
2023/07/28 10:20:41;;;;;;;4.18;2.90;;;19.10;98.50;;;;;;4961537;28;20771;-67
2023/07/28 10:23:15;;;;;;;5.43;2.75;;;19.40;98.70;;;;;;4969259;28;20038;-67
2023/07/28 10:25:42;;;;;;;3.78;2.50;;;19.40;98.30;;;;;;4962644;28;20134;-72
2023/07/28 10:28:38;;;;;;;4.55;2.75;;;19.50;98.30;;;;;;4965118;28;20614;-66
2023/07/28 10:31:06;;;;;;;4.05;2.60;;;19.70;98.30;;;;;;4962682;28;20057;-67
2023/07/28 10:33:38;;;;;;;3.95;2.42;;;19.50;97.80;;;;;;4971355;28;20026;-68
2023/07/28 10:36:17;;;;;;;4.10;2.67;;;19.40;97.50;;;;;;4964754;28;20340;-66
2023/07/28 10:38:43;;;;;;;4.32;2.92;;;19.20;97.70;;;;;;4965178;28;20026;-68
2023/07/28 10:41:18;;;;;;;4.10;2.92;;;19.10;98.00;;;;;;4969916;28;20022;-67
2023/07/28 10:43:45;;;;;;;4.25;2.90;;;19.20;98.00;;;;;;4973760;28;20100;-70
2023/07/28 10:46:15;;;;;;;4.93;3.50;;;19.10;98.20;;;;;;4967199;28;20075;-67
2023/07/28 10:48:43;;;;;;;5.32;3.75;;;19.00;98.30;;;;;;4961520;28;20039;-67
2023/07/28 10:51:09;;;;;;;5.05;3.47;;;19.00;98.40;;;;;;4963033;28;20422;-68
2023/07/28 10:53:35;;;;;;;4.97;3.75;;;19.10;98.50;;;;;;4965929;28;20102;-68
2023/07/28 10:56:03;;;;;;;5.20;3.97;;;19.20;98.70;;;;;;4964509;28;20367;-67
2023/07/28 10:58:30;;;;;;;7.53;4.40;;;19.00;98.50;;;;;;4966435;28;20037;-68
2023/07/28 11:00:56;;;;;;;6.97;4.22;;;19.00;98.80;;;;;;4967189;28;20077;-67
2023/07/28 11:03:22;;;;;;;8.50;4.90;;;19.00;99.10;;;;;;4966689;28;20082;-67
2023/07/28 11:05:49;;;;;;;8.82;5.82;;;18.90;99.20;;;;;;4967136;28;20065;-69
2023/07/28 11:08:14;;;;;;;7.38;5.45;;;18.80;99.10;;;;;;4968244;28;20041;-67
2023/07/28 11:10:41;;;;;;;8.95;5.00;;;18.70;99.40;;;;;;4961513;28;20031;-67
2023/07/28 11:13:07;;;;;;;7.32;5.53;;;18.80;99.60;;;;;;4968829;28;20026;-69
2023/07/28 11:15:33;;;;;;;6.32;4.65;;;18.70;99.60;;;;;;4968358;28;20443;-69
2023/07/28 11:17:58;;;;;;;4.45;2.30;;;18.60;99.70;;;;;;4969458;28;20358;-67
2023/07/28 11:20:26;;;;;;;1.67;1.10;;;18.50;99.60;;;;;;4965660;28;20037;-67
2023/07/28 11:22:58;;;;;;;1.42;1.10;;;18.50;99.00;;;;;;4974421;28;20034;-68
2023/07/28 11:25:26;;;;;;;1.25;1.15;;;18.60;98.80;;;;;;4963835;28;20162;-69
2023/07/28 11:27:52;;;;;;;1.70;1.40;;;18.90;99.10;;;;;;4967868;28;20035;-68
2023/07/28 11:30:19;;;;;;;2.60;1.48;;;19.40;98.70;;;;;;4969519;28;20125;-69
2023/07/28 11:32:47;;;;;;;2.13;1.20;;;19.70;97.40;;;;;;4963060;28;20118;-68
2023/07/28 11:35:16;;;;;;;1.70;1.17;;;19.70;96.60;;;;;;4969670;28;20113;-68
2023/07/28 11:37:45;;;;;;;1.25;0.93;;;20.00;96.50;;;;;;4966254;28;20395;-70
2023/07/28 11:40:11;;;;;;;1.95;0.90;;;20.30;96.00;;;;;;4960019;28;20031;-70
2023/07/28 11:42:45;;;;;;;1.42;1.23;;;20.40;95.50;;;;;;4965622;28;20115;-71
2023/07/28 11:45:13;;;;;;;2.38;1.45;;;20.20;95.70;;;;;;4963665;28;20133;-70
2023/07/28 11:47:39;;;;;;;2.08;1.55;;;20.00;95.40;;;;;;4964125;28;20039;-67
2023/07/28 11:50:04;;;;;;;2.72;1.67;;;19.90;95.90;;;;;;4969057;28;20041;-68
2023/07/28 11:52:35;;;;;;;2.08;1.33;;;19.60;96.20;;;;;;4969873;28;20058;-67
2023/07/28 11:55:02;;;;;;;3.60;1.95;;;19.50;96.50;;;;;;4959950;28;20038;-68
2023/07/28 11:57:32;;;;;;;2.30;1.80;;;19.60;96.80;;;;;;4962459;28;20122;-67
2023/07/28 11:59:58;;;;;;;3.08;2.00;;;19.60;97.10;;;;;;4968917;28;20038;-68
2023/07/28 12:02:28;;;;;;;3.03;2.00;;;19.50;96.90;;;;;;4967230;28;20070;-67
2023/07/28 12:04:54;;;;;;;3.10;2.20;;;19.50;96.80;;;;;;4966409;28;20019;-67
2023/07/28 12:07:31;;;;;;;4.05;2.00;;;19.50;97.00;;;;;;4973351;28;20141;-67
2023/07/28 12:10:01;;;;;;;3.70;2.03;;;19.50;97.30;;;;;;4966333;28;20043;-69
2023/07/28 12:12:29;;;;;;;3.58;2.05;;;19.60;97.40;;;;;;4982144;28;20034;-71
2023/07/28 12:15:04;;;;;;;2.80;1.83;;;19.50;97.40;;;;;;4981052;28;20026;-69
2023/07/28 12:17:30;;;;;;;2.63;1.83;;;19.40;97.10;;;;;;4968698;28;20030;-67
2023/07/28 12:20:10;;;;;;;2.72;1.77;;;19.40;97.30;;;;;;4966888;28;20526;-67
2023/07/28 12:22:37;;;;;;;9.27;2.20;;;19.40;97.10;;;;;;4972556;28;20026;-68
2023/07/28 12:25:04;;;;;;;3.83;2.25;;;19.40;96.90;;;;;;4963971;28;20043;-68
2023/07/28 12:27:30;;;;;;;3.13;1.90;;;19.60;97.20;;;;;;4969195;28;20613;-67
2023/07/28 12:29:55;;;;;;;2.53;2.05;;;19.70;96.80;;;;;;4982959;28;20044;-73
2023/07/28 12:32:21;;;;;;;2.13;1.65;;;19.80;96.20;;;;;;4975672;28;20138;-68
2023/07/28 12:34:47;;;;;;;3.40;1.85;;;20.00;95.20;;;;;;4968710;28;20117;-68
2023/07/28 12:37:13;;;;;;;3.03;1.88;;;20.10;95.50;;;;;;4971367;28;20444;-68
2023/07/28 12:39:39;;;;;;;3.88;1.90;;;20.50;95.50;;;;;;4971984;28;20129;-68